Time;durP1;ratioP1;P1;durP2;ratioP2;P2;SDS_P1;SDS_P2;PMS_P1;PMS_P2;Temp;Humidity;BMP_temperature;BMP_pressure;BME280_temperature;BME280_humidity;BME280_pressure;Samples;Min_cycle;Max_cycle;Signal;HPM_P1;HPM_P2
2021/05/18 00:01:04;;;;;;;;;;;;;;;26.99;37.62;99684.97;5055706;28;803;-39
2021/05/18 00:03:29;;;;;;;;;;;;;;;27.00;37.71;99673.97;5058527;28;804;-41
2021/05/18 00:05:55;;;;;;;;;;;;;;;26.95;37.79;99684.56;5058669;28;776;-41
2021/05/18 00:08:25;;;;;;;;;;;;;;;26.94;38.03;99682.91;5058514;28;1964;-38
2021/05/18 00:13:35;;;;;;;;;;;;;;;26.98;37.99;99697.63;5058058;28;762;-37
2021/05/18 00:16:01;;;;;;;;;;;;;;;26.96;37.65;99698.88;5058170;28;776;-38
2021/05/18 00:18:26;;;;;;;;;;;;;;;27.05;37.69;99700.38;5058665;28;747;-38
2021/05/18 00:20:52;;;;;;;;;;;;;;;27.05;37.58;99689.56;5058178;28;780;-38
2021/05/18 00:23:17;;;;;;;;;;;;;;;27.09;37.52;99707.00;5058475;28;803;-39
2021/05/18 00:25:42;;;;;;;;;;;;;;;27.04;37.58;99719.47;5054751;28;793;-40
2021/05/18 00:28:08;;;;;;;;;;;;;;;27.07;37.54;99717.19;5056767;28;1906;-38
2021/05/18 00:30:33;;;;;;;;;;;;;;;27.06;37.48;99718.22;5058446;28;776;-37
2021/05/18 00:32:59;;;;;;;;;;;;;;;27.04;37.46;99708.66;5058200;28;859;-39
2021/05/18 00:35:24;;;;;;;;;;;;;;;27.02;37.55;99709.72;5058401;28;785;-38
2021/05/18 00:37:50;;;;;;;;;;;;;;;27.00;37.53;99713.63;5058603;28;740;-37
2021/05/18 00:40:16;;;;;;;;;;;;;;;27.03;37.57;99718.63;5057786;28;1222;-37
2021/05/18 00:42:52;;;;;;;;;;;;;;;27.00;37.50;99741.44;5057364;28;939;-41
2021/05/18 00:45:24;;;;;;;;;;;;;;;26.94;37.52;99746.84;5054931;28;1103;-37
2021/05/18 00:47:50;;;;;;;;;;;;;;;27.00;37.74;99743.31;5037310;28;1902;-38
2021/05/18 00:50:15;;;;;;;;;;;;;;;27.01;37.81;99732.31;5038107;28;752;-43
2021/05/18 00:52:40;;;;;;;;;;;;;;;26.97;37.88;99739.16;5038004;28;816;-38
2021/05/18 00:55:09;;;;;;;;;;;;;;;26.94;37.95;99733.34;5037478;28;791;-38
2021/05/18 01:00:18;;;;;;;;;;;;;;;27.01;37.84;99729.63;5022508;28;630;-37
2021/05/18 01:02:47;;;;;;;;;;;;;;;27.00;37.83;99735.22;5037274;28;1405;-39
2021/05/18 01:05:21;;;;;;;;;;;;;;;27.01;37.75;99729.63;5037543;28;824;-37
2021/05/18 01:07:49;;;;;;;;;;;;;;;26.68;35.80;99734.94;5036995;28;1963;-40
2021/05/18 01:10:15;;;;;;;;;;;;;;;26.33;35.67;99736.75;5037623;28;832;-40
2021/05/18 01:12:40;;;;;;;;;;;;;;;26.14;35.50;99722.16;5050735;28;945;-40
2021/05/18 01:15:06;;;;;;;;;;;;;;;26.04;35.91;99719.81;5057379;28;811;-39
2021/05/18 01:17:31;;;;;;;;;;;;;;;26.13;36.19;99717.75;5057636;28;772;-38
2021/05/18 01:19:56;;;;;;;;;;;;;;;26.34;37.50;99724.91;5057842;28;792;-38
2021/05/18 01:22:21;;;;;;;;;;;;;;;26.48;37.79;99719.56;5039271;28;816;-38
2021/05/18 01:24:47;;;;;;;;;;;;;;;26.49;38.49;99710.47;5057380;28;803;-39
2021/05/18 01:27:12;;;;;;;;;;;;;;;26.47;38.20;99716.06;5056944;28;951;-37
2021/05/18 01:29:37;;;;;;;;;;;;;;;26.62;38.03;99725.81;5057064;28;1910;-38
2021/05/18 01:32:07;;;;;;;;;;;;;;;26.56;38.15;99716.66;5056948;28;768;-39
2021/05/18 01:34:32;;;;;;;;;;;;;;;26.50;38.07;99721.03;5057346;28;879;-39
2021/05/18 01:36:57;;;;;;;;;;;;;;;26.40;37.69;99734.06;5056991;28;973;-38
2021/05/18 01:39:44;;;;;;;;;;;;;;;26.27;37.21;99735.69;5056688;28;1114;-36
2021/05/18 01:44:52;;;;;;;;;;;;;;;26.22;36.13;99730.06;5056348;28;661;-36
2021/05/18 01:47:17;;;;;;;;;;;;;;;26.16;36.21;99722.75;5056852;28;847;-36
2021/05/18 01:49:42;;;;;;;;;;;;;;;26.16;36.22;99725.44;5057223;28;1906;-37
2021/05/18 01:52:09;;;;;;;;;;;;;;;26.22;35.60;99716.56;5056795;28;811;-36
2021/05/18 01:54:34;;;;;;;;;;;;;;;26.17;35.75;99724.44;5056937;28;803;-38
2021/05/18 01:59:25;;;;;;;;;;;;;;;26.15;35.33;99730.03;5056768;28;779;-38
2021/05/18 02:01:54;;;;;;;;;;;;;;;26.12;35.18;99749.31;5056535;28;736;-36
2021/05/18 02:04:21;;;;;;;;;;;;;;;26.08;35.58;99750.72;5056651;28;756;-36
2021/05/18 02:06:46;;;;;;;;;;;;;;;26.03;35.76;99747.78;5056647;28;799;-38
2021/05/18 02:09:11;;;;;;;;;;;;;;;26.08;35.61;99753.41;5056382;28;1898;-37
2021/05/18 02:11:37;;;;;;;;;;;;;;;26.12;35.22;99741.22;5056103;28;967;-36
2021/05/18 02:14:05;;;;;;;;;;;;;;;26.19;35.21;99726.94;5056902;28;823;-36
2021/05/18 02:16:35;;;;;;;;;;;;;;;26.17;35.21;99743.31;5056014;28;859;-36
2021/05/18 02:19:11;;;;;;;;;;;;;;;26.12;35.33;99753.84;5056338;28;752;-37
2021/05/18 02:24:47;;;;;;;;;;;;;;;26.08;35.42;99768.75;5056232;28;609;-38
2021/05/18 02:27:12;;;;;;;;;;;;;;;26.06;35.14;99751.97;5056007;28;1053;-38
2021/05/18 02:29:37;;;;;;;;;;;;;;;25.95;35.17;99759.56;5056086;28;1902;-37
2021/05/18 02:32:03;;;;;;;;;;;;;;;26.01;34.82;99760.63;5056239;28;760;-38
2021/05/18 02:34:28;;;;;;;;;;;;;;;25.93;35.12;99767.00;5056430;28;744;-37
2021/05/18 02:36:53;;;;;;;;;;;;;;;25.99;34.77;99773.50;5056162;28;807;-37
2021/05/18 02:39:19;;;;;;;;;;;;;;;25.86;34.94;99775.06;5056165;28;1088;-37
2021/05/18 02:41:44;;;;;;;;;;;;;;;25.85;34.54;99775.25;5055834;28;979;-36
2021/05/18 02:44:19;;;;;;;;;;;;;;;25.76;34.61;99772.72;5056055;28;787;-37
2021/05/18 02:49:28;;;;;;;;;;;;;;;25.77;34.50;99787.03;5056126;28;1975;-37
2021/05/18 02:51:54;;;;;;;;;;;;;;;25.82;34.42;99775.66;5059932;28;800;-37
2021/05/18 02:54:24;;;;;;;;;;;;;;;25.87;34.46;99779.44;5060169;28;792;-37
2021/05/18 02:56:56;;;;;;;;;;;;;;;25.84;34.29;99781.69;5059539;28;931;-37
2021/05/18 02:59:21;;;;;;;;;;;;;;;25.83;34.24;99790.78;5059705;28;791;-37
2021/05/18 03:01:48;;;;;;;;;;;;;;;25.81;34.15;99788.28;5060094;28;772;-38
2021/05/18 03:04:13;;;;;;;;;;;;;;;25.85;34.36;99800.34;5060117;28;815;-37
2021/05/18 03:06:38;;;;;;;;;;;;;;;25.88;33.96;99802.66;5059726;28;748;-38
2021/05/18 03:09:08;;;;;;;;;;;;;;;25.87;33.71;99825.25;5059993;28;1905;-37
2021/05/18 03:11:34;;;;;;;;;;;;;;;25.76;33.84;99821.22;5059546;28;974;-37
2021/05/18 03:13:59;;;;;;;;;;;;;;;25.73;33.30;99827.00;5059585;28;747;-39
2021/05/18 03:16:25;;;;;;;;;;;;;;;25.51;33.44;99805.47;5059912;28;795;-38
2021/05/18 03:18:50;;;;;;;;;;;;;;;25.67;33.42;99827.78;5059757;28;871;-38
2021/05/18 03:21:15;;;;;;;;;;;;;;;25.70;33.37;99821.16;5059437;28;804;-39
2021/05/18 03:23:41;;;;;;;;;;;;;;;25.45;33.30;99835.88;5059650;28;747;-39
2021/05/18 03:26:06;;;;;;;;;;;;;;;25.58;33.33;99840.53;5059985;28;960;-38
2021/05/18 03:28:32;;;;;;;;;;;;;;;25.62;33.36;99825.66;5058976;28;1969;-39
2021/05/18 03:36:09;;;;;;;;;;;;;;;25.34;33.20;99836.38;5058924;28;641;-37
2021/05/18 03:41:05;;;;;;;;;;;;;;;24.57;35.94;99845.69;5059660;28;701;-38
2021/05/18 03:48:58;;;;;;;;;;;;;;;25.74;33.68;99855.59;5058833;28;1906;-37
2021/05/18 04:04:34;;;;;;;;;;;;;;;26.08;33.53;99863.91;5057998;28;658;-36
2021/05/18 04:12:44;;;;;;;;;;;;;;;26.44;34.57;99866.63;5057994;28;920;-35
2021/05/18 04:52:17;;;;;;;;;;;;;;;26.53;36.57;99863.56;5057254;28;669;-38
2021/05/18 05:00:16;;;;;;;;;;;;;;;26.58;36.40;99873.75;5057521;28;594;-36
2021/05/18 05:08:15;;;;;;;;;;;;;;;26.54;36.80;99894.06;5057348;28;1897;-37
2021/05/18 05:15:43;;;;;;;;;;;;;;;26.61;36.46;99894.91;5057604;28;772;-38
2021/05/18 05:18:11;;;;;;;;;;;;;;;26.62;36.34;99893.91;5057653;28;788;-35
2021/05/18 05:20:37;;;;;;;;;;;;;;;26.62;36.36;99895.75;5057275;28;846;-37
2021/05/18 05:23:02;;;;;;;;;;;;;;;26.68;36.42;99876.06;5057660;28;782;-38
2021/05/18 05:25:27;;;;;;;;;;;;;;;26.67;36.55;99860.94;5057588;28;759;-36
2021/05/18 05:27:53;;;;;;;;;;;;;;;26.72;36.55;99863.00;5056533;28;1910;-39
2021/05/18 05:30:18;;;;;;;;;;;;;;;26.69;36.54;99860.72;5057395;28;746;-39
2021/05/18 05:32:43;;;;;;;;;;;;;;;26.71;36.39;99861.38;5057381;28;831;-38
2021/05/18 05:35:09;;;;;;;;;;;;;;;26.69;36.48;99856.16;5056953;28;870;-38
2021/05/18 05:37:34;;;;;;;;;;;;;;;26.71;36.27;99848.69;5057208;28;947;-38
2021/05/18 05:39:59;;;;;;;;;;;;;;;26.74;36.64;99850.97;5056871;28;1076;-38
2021/05/18 05:42:25;;;;;;;;;;;;;;;26.75;36.52;99857.22;5056341;28;987;-39
2021/05/18 05:44:50;;;;;;;;;;;;;;;26.73;36.49;99849.31;5056514;28;536;-37
2021/05/18 05:47:16;;;;;;;;;;;;;;;26.74;36.79;99847.47;5057035;28;760;-36
2021/05/18 05:49:42;;;;;;;;;;;;;;;26.68;36.69;99854.50;5056375;28;1973;-37
2021/05/18 05:52:09;;;;;;;;;;;;;;;26.72;36.44;99854.91;5056840;28;791;-35
2021/05/18 05:54:34;;;;;;;;;;;;;;;26.75;36.79;99865.31;5056337;28;857;-38
2021/05/18 05:57:00;;;;;;;;;;;;;;;26.80;36.68;99867.38;5055618;28;987;-38
2021/05/18 05:59:25;;;;;;;;;;;;;;;26.98;36.01;99864.13;5056728;28;875;-37
2021/05/18 06:01:50;;;;;;;;;;;;;;;26.94;36.17;99866.41;5056598;28;799;-36
2021/05/18 06:04:15;;;;;;;;;;;;;;;26.98;36.24;99869.53;5056667;28;768;-36
2021/05/18 06:06:41;;;;;;;;;;;;;;;26.94;36.21;99865.56;5056713;28;891;-35
2021/05/18 06:09:06;;;;;;;;;;;;;;;27.01;36.07;99855.59;5056576;28;1973;-36
2021/05/18 06:11:44;;;;;;;;;;;;;;;26.98;36.04;99853.31;5055811;28;931;-39
2021/05/18 06:49:58;;;;;;;;;;;;;;;27.02;36.46;99884.31;5038479;28;1910;-34
2021/05/18 06:52:24;;;;;;;;;;;;;;;27.05;36.63;99878.50;5031669;28;1178;-35
2021/05/18 06:54:49;;;;;;;;;;;;;;;27.13;36.13;99872.91;5047446;28;1183;-36
2021/05/18 06:57:14;;;;;;;;;;;;;;;27.00;36.61;99868.28;5055362;28;916;-34
2021/05/18 07:02:24;;;;;;;;;;;;;;;27.06;36.74;99855.88;5055707;28;602;-36
2021/05/18 07:04:53;;;;;;;;;;;;;;;27.04;36.44;99849.03;5050360;28;1075;-36
2021/05/18 07:07:20;;;;;;;;;;;;;;;27.11;36.66;99855.28;5056174;28;829;-40
2021/05/18 07:09:45;;;;;;;;;;;;;;;27.13;36.06;99859.41;5055543;28;1898;-40
2021/05/18 07:12:10;;;;;;;;;;;;;;;27.12;36.06;99846.97;5055100;28;932;-36
2021/05/18 07:14:36;;;;;;;;;;;;;;;27.15;36.21;99853.81;5056109;28;761;-39
2021/05/18 07:17:01;;;;;;;;;;;;;;;27.22;36.40;99853.81;5055685;28;838;-36
2021/05/18 07:19:26;;;;;;;;;;;;;;;27.23;36.20;99847.38;5055662;28;743;-36
2021/05/18 07:21:52;;;;;;;;;;;;;;;27.25;36.17;99848.84;5055359;28;822;-40
2021/05/18 07:24:24;;;;;;;;;;;;;;;27.21;36.05;99846.78;5055830;28;807;-41
2021/05/18 07:26:50;;;;;;;;;;;;;;;27.21;36.31;99836.78;5054729;28;979;-38
2021/05/18 07:29:15;;;;;;;;;;;;;;;27.30;35.95;99850.94;5055311;28;1905;-41
2021/05/18 07:31:41;;;;;;;;;;;;;;;27.30;36.02;99850.94;5048249;28;868;-41
2021/05/18 07:34:06;;;;;;;;;;;;;;;27.26;36.31;99837.00;5045243;28;828;-42
2021/05/18 07:36:31;;;;;;;;;;;;;;;27.36;35.76;99843.88;5056978;28;821;-41
2021/05/18 07:38:57;;;;;;;;;;;;;;;27.30;35.99;99842.00;5058057;28;1203;-40
2021/05/18 07:41:22;;;;;;;;;;;;;;;27.32;35.79;99843.47;5057888;28;892;-38
2021/05/18 07:43:47;;;;;;;;;;;;;;;27.34;35.84;99846.75;5058519;28;937;-41
2021/05/18 07:46:17;;;;;;;;;;;;;;;27.28;36.36;99853.00;5054929;28;861;-40
2021/05/18 07:49:30;;;;;;;;;;;;;;;27.40;35.48;99858.63;5045139;28;1973;-40
2021/05/18 08:07:16;;;;;;;;;;;;;;;27.42;35.92;99866.50;5050033;28;742;-38
2021/05/18 08:09:46;;;;;;;;;;;;;;;27.46;35.27;99879.38;5037652;28;1902;-38
2021/05/18 08:12:11;;;;;;;;;;;;;;;27.41;35.78;99878.38;5054037;28;838;-42
2021/05/18 08:14:41;;;;;;;;;;;;;;;27.47;35.67;99882.94;5057837;28;857;-40
2021/05/18 08:55:41;;;;;;;;;;;;;;;27.39;36.23;99871.28;5037280;28;810;-37
2021/05/18 10:35:52;;;;;;;;;;;;;;;27.90;34.35;99854.69;5044045;28;793;-38
2021/05/18 10:38:20;;;;;;;;;;;;;;;27.80;34.47;99857.81;5035512;28;1120;-37
2021/05/18 10:40:45;;;;;;;;;;;;;;;27.92;34.33;99847.19;5043241;28;841;-37
2021/05/18 10:43:18;;;;;;;;;;;;;;;27.98;34.49;99859.88;5047178;28;951;-36
2021/05/18 10:45:56;;;;;;;;;;;;;;;27.95;34.26;99856.75;5035299;28;824;-37
2021/05/18 10:48:25;;;;;;;;;;;;;;;27.86;34.38;99850.75;5042482;28;1981;-39
2021/05/18 10:50:50;;;;;;;;;;;;;;;27.87;34.43;99847.84;5052461;28;849;-37
2021/05/18 10:53:19;;;;;;;;;;;;;;;27.83;34.27;99848.44;5043581;28;875;-37
2021/05/18 10:56:03;;;;;;;;;;;;;;;27.82;34.26;99858.44;5051425;28;806;-37
2021/05/18 10:58:29;;;;;;;;;;;;;;;27.91;34.84;99853.63;5043510;28;925;-37
2021/05/18 11:00:54;;;;;;;;;;;;;;;27.94;34.77;99850.53;5051128;28;873;-38
2021/05/18 11:03:19;;;;;;;;;;;;;;;27.90;34.50;99851.13;5035842;28;822;-37
2021/05/18 11:05:44;;;;;;;;;;;;;;;27.84;33.97;99858.22;5053288;28;857;-37
2021/05/18 11:08:16;;;;;;;;;;;;;;;27.85;34.51;99849.91;5037268;28;1906;-37
2021/05/18 11:10:41;;;;;;;;;;;;;;;27.94;34.06;99847.00;5037627;28;825;-37
2021/05/18 11:13:08;;;;;;;;;;;;;;;27.90;34.63;99860.09;5051422;28;952;-37
2021/05/18 11:15:33;;;;;;;;;;;;;;;27.96;34.32;99845.72;5058640;28;864;-37
2021/05/18 11:17:59;;;;;;;;;;;;;;;27.86;34.28;99837.25;5045336;28;1150;-37
2021/05/18 11:25:55;;;;;;;;;;;;;;;27.89;34.53;99819.75;5045070;28;734;-37
2021/05/18 11:28:34;;;;;;;;;;;;;;;27.96;34.05;99834.09;5055953;28;1902;-37
2021/05/18 11:31:00;;;;;;;;;;;;;;;27.93;34.10;99831.78;5057949;28;857;-37
2021/05/18 11:33:31;;;;;;;;;;;;;;;27.91;34.11;99829.31;5052748;28;880;-37
2021/05/18 11:36:12;;;;;;;;;;;;;;;27.86;34.26;99826.44;5051040;28;844;-38
2021/05/18 11:38:38;;;;;;;;;;;;;;;27.90;34.59;99830.34;5054898;28;985;-36
2021/05/18 11:41:03;;;;;;;;;;;;;;;27.91;34.05;99799.56;5045610;28;839;-36
2021/05/18 11:43:35;;;;;;;;;;;;;;;27.93;33.71;99818.28;5052113;28;834;-37
2021/05/18 11:46:10;;;;;;;;;;;;;;;27.95;34.92;99829.72;5047101;28;850;-38
2021/05/18 11:48:36;;;;;;;;;;;;;;;27.93;34.82;99827.22;5037908;28;1902;-37
2021/05/18 11:51:01;;;;;;;;;;;;;;;27.96;34.40;99831.41;5047466;28;959;-36
2021/05/18 11:53:28;;;;;;;;;;;;;;;27.97;34.32;99817.66;5044756;28;837;-35
2021/05/18 11:55:53;;;;;;;;;;;;;;;27.99;33.96;99841.78;5052542;28;821;-36
2021/05/18 11:58:19;;;;;;;;;;;;;;;28.04;33.83;99842.00;5053155;28;1005;-36
2021/05/18 12:00:44;;;;;;;;;;;;;;;28.01;34.14;99847.78;5037688;28;818;-36
2021/05/18 12:03:10;;;;;;;;;;;;;;;28.01;34.05;99849.69;5037863;28;865;-37
2021/05/18 12:05:49;;;;;;;;;;;;;;;28.00;33.81;99840.72;5045618;28;791;-38
2021/05/18 12:08:24;;;;;;;;;;;;;;;27.97;34.51;99839.28;5057707;28;1965;-37
2021/05/18 12:10:49;;;;;;;;;;;;;;;28.02;34.37;99827.84;5052423;28;853;-37
2021/05/18 12:13:25;;;;;;;;;;;;;;;27.99;34.49;99831.78;5057479;28;951;-37
2021/05/18 12:16:23;;;;;;;;;;;;;;;28.07;34.01;99835.31;5057300;28;805;-36
2021/05/18 12:18:55;;;;;;;;;;;;;;;28.04;33.90;99831.19;4996920;28;1220;-37
2021/05/18 12:21:28;;;;;;;;;;;;;;;28.07;33.87;99848.84;5057026;28;866;-36
2021/05/18 12:24:12;;;;;;;;;;;;;;;28.02;33.85;99827.84;5057543;28;817;-37
2021/05/18 12:26:48;;;;;;;;;;;;;;;27.99;33.96;99823.69;5050089;28;849;-36
2021/05/18 12:29:34;;;;;;;;;;;;;;;28.04;34.06;99831.19;5045201;28;1905;-36
2021/05/18 12:32:19;;;;;;;;;;;;;;;28.03;34.11;99824.09;5037472;28;830;-36
2021/05/18 12:34:45;;;;;;;;;;;;;;;28.01;33.79;99825.34;5050295;28;827;-35
2021/05/18 12:37:12;;;;;;;;;;;;;;;28.01;33.79;99815.34;5041559;28;1545;-38
2021/05/18 12:39:46;;;;;;;;;;;;;;;28.04;33.90;99819.53;5053646;28;1028;-37
2021/05/18 12:42:14;;;;;;;;;;;;;;;28.01;32.60;99819.94;5057607;28;1031;-35
2021/05/18 12:44:54;;;;;;;;;;;;;;;27.99;33.83;99817.47;5057998;28;794;-37
2021/05/18 12:47:26;;;;;;;;;;;;;;;27.97;34.00;99811.44;5057981;28;799;-36
2021/05/18 12:49:51;;;;;;;;;;;;;;;27.93;34.06;99815.56;5057923;28;1973;-35
2021/05/18 12:52:16;;;;;;;;;;;;;;;28.06;33.60;99812.84;5057672;28;783;-36
2021/05/18 12:54:49;;;;;;;;;;;;;;;28.05;33.14;99822.00;5057962;28;732;-38
2021/05/18 12:57:18;;;;;;;;;;;;;;;28.03;33.73;99824.09;5057523;28;991;-36
2021/05/18 12:59:56;;;;;;;;;;;;;;;28.01;33.73;99818.06;5057436;28;823;-37
2021/05/18 13:02:33;;;;;;;;;;;;;;;27.97;33.57;99824.94;5057759;28;826;-36
2021/05/18 13:05:03;;;;;;;;;;;;;;;28.01;33.42;99815.34;5057770;28;823;-36
2021/05/18 13:07:28;;;;;;;;;;;;;;;28.00;33.24;99829.91;5057012;28;811;-38
2021/05/18 13:10:06;;;;;;;;;;;;;;;28.01;33.57;99814.53;5057500;28;1906;-36
2021/05/18 13:12:31;;;;;;;;;;;;;;;27.98;33.76;99827.44;5057386;28;1003;-35
2021/05/18 13:14:57;;;;;;;;;;;;;;;28.04;33.55;99833.88;5057017;28;776;-38
2021/05/18 13:17:23;;;;;;;;;;;;;;;28.00;33.73;99827.22;5057559;28;779;-36
2021/05/18 13:19:58;;;;;;;;;;;;;;;28.01;33.51;99818.06;5057793;28;760;-38
2021/05/18 13:22:25;;;;;;;;;;;;;;;28.06;33.50;99817.44;5057071;28;751;-36
2021/05/18 13:27:35;;;;;;;;;;;;;;;28.04;33.84;99816.81;5056516;28;927;-39
2021/05/18 13:30:01;;;;;;;;;;;;;;;27.99;33.69;99822.88;5057189;28;1914;-36
2021/05/18 13:32:26;;;;;;;;;;;;;;;27.93;33.64;99819.13;5057564;28;769;-38
2021/05/18 13:34:51;;;;;;;;;;;;;;;28.03;33.30;99823.28;5056686;28;819;-38
2021/05/18 13:37:16;;;;;;;;;;;;;;;27.97;33.55;99827.63;5057399;28;743;-37
2021/05/18 13:39:42;;;;;;;;;;;;;;;27.97;33.53;99822.25;5057122;28;1311;-36
2021/05/18 13:42:07;;;;;;;;;;;;;;;27.93;33.80;99819.13;5056687;28;979;-35
2021/05/18 13:44:32;;;;;;;;;;;;;;;27.95;33.68;99827.00;5057069;28;764;-39
2021/05/18 13:46:58;;;;;;;;;;;;;;;27.98;33.37;99823.88;5057436;28;787;-37
2021/05/18 13:49:23;;;;;;;;;;;;;;;27.98;33.60;99832.84;5056747;28;1906;-35
2021/05/18 13:51:48;;;;;;;;;;;;;;;27.99;33.43;99845.31;5057177;28;768;-36
2021/05/18 13:54:13;;;;;;;;;;;;;;;28.03;33.60;99832.19;5056761;28;840;-36
2021/05/18 13:56:41;;;;;;;;;;;;;;;28.04;33.70;99844.69;5056465;28;939;-37
2021/05/18 13:59:06;;;;;;;;;;;;;;;28.08;33.28;99848.63;5056766;28;772;-35
2021/05/18 14:01:31;;;;;;;;;;;;;;;27.97;33.81;99849.28;5056903;28;836;-36
2021/05/18 14:03:57;;;;;;;;;;;;;;;27.98;33.46;99854.47;5056671;28;764;-37
2021/05/18 14:06:22;;;;;;;;;;;;;;;27.98;33.35;99848.22;5056817;28;752;-36
2021/05/18 14:08:48;;;;;;;;;;;;;;;27.98;33.43;99854.47;5056359;28;1897;-38
2021/05/18 14:11:14;;;;;;;;;;;;;;;28.01;33.69;99855.09;5056444;28;927;-36
2021/05/18 14:13:42;;;;;;;;;;;;;;;27.93;33.35;99862.38;5056337;28;846;-36
2021/05/18 14:16:14;;;;;;;;;;;;;;;27.98;33.50;99853.63;5056820;28;803;-36
2021/05/18 14:18:40;;;;;;;;;;;;;;;27.95;33.67;99857.59;5056565;28;784;-36
2021/05/18 14:21:05;;;;;;;;;;;;;;;28.01;33.16;99855.91;5056528;28;748;-36
2021/05/18 14:26:08;;;;;;;;;;;;;;;27.89;33.59;99853.03;5056308;28;935;-36
2021/05/18 14:28:33;;;;;;;;;;;;;;;27.97;33.21;99863.63;5055809;28;1909;-37
2021/05/18 14:30:59;;;;;;;;;;;;;;;27.90;33.11;99868.19;5054713;28;1023;-37
2021/05/18 14:33:24;;;;;;;;;;;;;;;27.92;32.93;99855.31;5055748;28;1088;-35
2021/05/18 14:35:49;;;;;;;;;;;;;;;27.89;33.63;99855.72;5043902;28;1446;-36
2021/05/18 14:38:20;;;;;;;;;;;;;;;27.85;33.71;99849.06;5036419;28;1171;-38
2021/05/18 14:56:31;;;;;;;;;;;;;;;27.95;33.27;99864.84;5059650;28;965;-37
2021/05/18 14:58:56;;;;;;;;;;;;;;;27.98;33.17;99854.47;5059909;28;804;-37
2021/05/18 15:01:21;;;;;;;;;;;;;;;28.00;33.05;99865.06;5059917;28;807;-36
2021/05/18 15:03:47;;;;;;;;;;;;;;;27.92;33.58;99854.47;5060089;28;964;-36
2021/05/18 15:06:12;;;;;;;;;;;;;;;27.87;33.67;99860.50;5059944;28;760;-37
2021/05/18 15:08:37;;;;;;;;;;;;;;;27.97;33.52;99873.59;5060108;28;1899;-35
2021/05/18 15:11:04;;;;;;;;;;;;;;;28.01;33.14;99855.09;5060080;28;812;-35
2021/05/18 15:13:31;;;;;;;;;;;;;;;28.01;33.16;99857.78;5058130;28;883;-36
2021/05/18 15:15:57;;;;;;;;;;;;;;;28.00;33.43;99865.06;5060103;28;830;-37
2021/05/18 15:18:22;;;;;;;;;;;;;;;27.94;33.20;99872.16;5060003;28;760;-36
2021/05/18 15:20:48;;;;;;;;;;;;;;;27.92;33.52;99867.97;5059654;28;811;-37
2021/05/18 15:23:13;;;;;;;;;;;;;;;27.91;33.67;99861.75;5058627;28;932;-37
2021/05/18 15:25:40;;;;;;;;;;;;;;;27.80;33.98;99862.38;5055452;28;853;-38
2021/05/18 15:28:05;;;;;;;;;;;;;;;27.91;33.46;99860.94;5055268;28;1965;-45
2021/05/18 15:30:30;;;;;;;;;;;;;;;27.91;33.37;99859.03;5058523;28;928;-37
2021/05/18 15:32:56;;;;;;;;;;;;;;;27.85;33.35;99860.72;5048241;28;1259;-37
2021/05/18 15:35:21;;;;;;;;;;;;;;;27.82;33.50;99844.94;5044847;28;816;-36
2021/05/18 15:37:46;;;;;;;;;;;;;;;27.87;33.42;99853.25;5039435;28;803;-36
2021/05/18 15:40:12;;;;;;;;;;;;;;;27.94;33.34;99858.66;5038425;28;1230;-37
2021/05/18 15:42:37;;;;;;;;;;;;;;;26.95;26.46;99859.97;5051689;28;1037;-37
2021/05/18 15:45:06;;;;;;;;;;;;;;;26.21;23.56;99873.94;5059837;28;800;-40
2021/05/18 15:47:34;;;;;;;;;;;;;;;25.54;22.82;99872.38;5059351;28;811;-39
2021/05/18 15:49:59;;;;;;;;;;;;;;;25.95;22.60;99866.50;5045296;28;1914;-40
2021/05/18 15:52:24;;;;;;;;;;;;;;;26.25;21.89;99868.97;5039130;28;787;-38
2021/05/18 15:54:50;;;;;;;;;;;;;;;26.19;21.99;99865.25;5039618;28;740;-39
2021/05/18 15:57:18;;;;;;;;;;;;;;;26.00;22.27;99875.69;5046775;28;972;-38
2021/05/18 15:59:48;;;;;;;;;;;;;;;26.16;22.20;99882.63;5059446;28;788;-40
2021/05/18 16:02:13;;;;;;;;;;;;;;;26.26;22.42;99876.03;5059384;28;784;-32
2021/05/18 16:04:39;;;;;;;;;;;;;;;26.73;24.30;99878.16;5058751;28;870;-35
2021/05/18 16:07:07;;;;;;;;;;;;;;;26.89;24.72;99883.19;5059251;28;771;-37
2021/05/18 16:09:33;;;;;;;;;;;;;;;27.01;25.61;99883.47;5059453;28;1905;-37
2021/05/18 16:11:58;;;;;;;;;;;;;;;27.10;26.20;99886.00;5058296;28;924;-41
2021/05/18 16:14:23;;;;;;;;;;;;;;;27.13;26.42;99889.13;5059250;28;877;-41
2021/05/18 16:16:49;;;;;;;;;;;;;;;27.16;25.99;99881.66;5059188;28;835;-45
2021/05/18 16:19:14;;;;;;;;;;;;;;;27.06;27.26;99876.66;5058480;28;851;-39
2021/05/18 16:21:40;;;;;;;;;;;;;;;27.00;28.82;99873.69;5058668;28;815;-41
2021/05/18 16:24:05;;;;;;;;;;;;;;;27.08;27.41;99893.44;5058984;28;743;-39
2021/05/18 16:26:32;;;;;;;;;;;;;;;27.05;25.10;99889.31;5057877;28;979;-37
2021/05/18 16:28:59;;;;;;;;;;;;;;;26.91;27.48;99891.09;5058754;28;1973;-38
2021/05/18 16:31:25;;;;;;;;;;;;;;;26.86;28.66;99883.59;5058497;28;846;-38
2021/05/18 16:33:50;;;;;;;;;;;;;;;26.86;29.17;99894.41;5058257;28;736;-39
2021/05/18 16:36:16;;;;;;;;;;;;;;;26.95;25.82;99878.03;5059088;28;826;-37
2021/05/18 16:38:41;;;;;;;;;;;;;;;27.02;27.44;99895.09;5058465;28;1079;-36
2021/05/18 16:41:07;;;;;;;;;;;;;;;27.11;30.72;99896.56;5057854;28;935;-40
2021/05/18 16:43:32;;;;;;;;;;;;;;;27.13;31.80;99891.81;5058280;28;931;-38
2021/05/18 16:45:58;;;;;;;;;;;;;;;27.22;31.46;99897.03;5058908;28;803;-41
2021/05/18 16:48:26;;;;;;;;;;;;;;;27.12;31.54;99900.13;5057837;28;1918;-38
2021/05/18 16:50:52;;;;;;;;;;;;;;;27.07;31.20;99905.28;5057988;28;780;-36
2021/05/18 16:53:17;;;;;;;;;;;;;;;27.26;31.41;99906.38;5058301;28;811;-35
2021/05/18 16:55:43;;;;;;;;;;;;;;;27.21;31.90;99914.28;5057978;28;783;-37
2021/05/18 16:58:08;;;;;;;;;;;;;;;27.24;31.99;99917.38;5057786;28;959;-36
2021/05/18 17:00:34;;;;;;;;;;;;;;;27.26;31.94;99903.66;5058034;28;818;-36
2021/05/18 17:02:59;;;;;;;;;;;;;;;27.23;31.98;99920.28;5057789;28;743;-39
2021/05/18 17:05:27;;;;;;;;;;;;;;;27.22;32.32;99905.97;5058205;28;822;-38
2021/05/18 17:07:53;;;;;;;;;;;;;;;27.28;32.23;99909.69;5057353;28;862;-38
2021/05/18 17:10:20;;;;;;;;;;;;;;;27.30;32.08;99915.72;5056891;28;1953;-38
2021/05/18 17:12:46;;;;;;;;;;;;;;;27.38;32.49;99907.44;5057708;28;1011;-38
2021/05/18 17:15:11;;;;;;;;;;;;;;;27.23;32.84;99904.06;5057730;28;898;-36
2021/05/18 17:17:36;;;;;;;;;;;;;;;27.29;33.06;99897.03;5057932;28;847;-35
2021/05/18 17:20:02;;;;;;;;;;;;;;;27.32;33.22;99907.44;5058267;28;807;-36
2021/05/18 17:22:27;;;;;;;;;;;;;;;27.31;33.09;99922.78;5057693;28;736;-37
2021/05/18 17:24:53;;;;;;;;;;;;;;;27.41;32.93;99910.78;5043594;28;1080;-36
2021/05/18 17:27:18;;;;;;;;;;;;;;;27.38;32.93;99907.44;5046032;28;1003;-37
2021/05/18 17:29:43;;;;;;;;;;;;;;;27.40;33.07;99912.63;5057873;28;1957;-35
2021/05/18 17:32:11;;;;;;;;;;;;;;;27.38;33.01;99925.50;5057151;28;1049;-37
2021/05/18 17:34:37;;;;;;;;;;;;;;;27.41;33.11;99914.28;5050230;28;1080;-36
2021/05/18 17:37:02;;;;;;;;;;;;;;;27.41;33.31;99916.19;5037147;28;827;-35
2021/05/18 17:39:27;;;;;;;;;;;;;;;27.37;33.15;99911.19;5053241;28;1215;-35
2021/05/18 17:41:52;;;;;;;;;;;;;;;27.37;32.89;99918.44;5056846;28;1011;-36
2021/05/18 17:44:18;;;;;;;;;;;;;;;27.41;33.07;99921.56;5057315;28;732;-35
2021/05/18 17:46:43;;;;;;;;;;;;;;;27.41;33.42;99918.88;5057232;28;745;-39
2021/05/18 17:49:10;;;;;;;;;;;;;;;27.42;33.21;99928.63;5057162;28;1910;-36
2021/05/18 17:51:36;;;;;;;;;;;;;;;27.41;33.48;99929.69;5056680;28;849;-36
2021/05/18 17:54:01;;;;;;;;;;;;;;;27.45;33.58;99939.03;5057148;28;736;-35
2021/05/18 17:56:27;;;;;;;;;;;;;;;27.36;33.19;99941.91;5056547;28;935;-35
2021/05/18 17:58:52;;;;;;;;;;;;;;;27.42;33.54;99952.94;5056965;28;1000;-38
2021/05/18 18:01:18;;;;;;;;;;;;;;;27.38;33.77;99956.06;5057060;28;795;-37
2021/05/18 18:03:43;;;;;;;;;;;;;;;27.41;33.46;99957.50;5056810;28;867;-37
2021/05/18 18:06:08;;;;;;;;;;;;;;;27.61;33.06;99957.53;5056732;28;752;-36
2021/05/18 18:08:39;;;;;;;;;;;;;;;27.68;32.78;99972.91;5056666;28;1973;-36
2021/05/18 18:11:04;;;;;;;;;;;;;;;27.73;32.98;99967.75;5056052;28;928;-36
2021/05/18 18:13:29;;;;;;;;;;;;;;;27.83;32.84;99975.47;5056978;28;927;-36
2021/05/18 18:15:55;;;;;;;;;;;;;;;27.75;33.17;99980.06;5056992;28;828;-35
2021/05/18 18:18:20;;;;;;;;;;;;;;;27.79;33.04;99975.06;5056632;28;772;-39
2021/05/18 18:20:45;;;;;;;;;;;;;;;27.88;32.81;99978.38;5056656;28;879;-40
2021/05/18 18:23:10;;;;;;;;;;;;;;;27.87;32.82;99991.09;5056903;28;763;-36